createdAt,value
2022-10-22T00:02:12.110Z,95675.78
2022-10-22T00:07:14.188Z,95671.75
2022-10-22T00:12:16.111Z,95641.38
2022-10-22T00:17:17.593Z,95655.25
2022-10-22T00:22:18.999Z,95665.13
2022-10-22T00:27:20.389Z,95658.19
2022-10-22T00:32:22.107Z,95656.22
2022-10-22T00:37:23.546Z,95669.09
2022-10-22T00:42:27.363Z,95672.94
2022-10-22T00:47:35.217Z,95657.81
2022-10-22T00:52:36.664Z,95682.34
2022-10-22T00:57:38.226Z,95701.91
2022-10-22T01:02:39.824Z,95694.13
2022-10-22T01:07:45.178Z,95702.44
2022-10-22T01:13:22.011Z,95703.91
2022-10-22T01:18:38.627Z,95707.91
2022-10-22T01:23:59.772Z,95697.31
2022-10-22T01:29:13.124Z,95694.66
2022-10-22T01:39:49.439Z,95680.41
2022-10-22T01:44:50.821Z,95674.97
2022-10-22T01:50:14.362Z,95672.31
2022-10-22T01:55:41.812Z,95639.06
2022-10-22T02:00:50.527Z,95624.25
2022-10-22T02:05:56.719Z,95620.94
2022-10-22T02:10:59.287Z,95630.16
2022-10-22T02:16:01.794Z,95639.06
2022-10-22T02:21:03.691Z,95641.50
2022-10-22T02:26:32.559Z,95644.84
2022-10-22T02:31:39.021Z,95652.34
2022-10-22T02:36:46.667Z,95647.00
2022-10-22T02:41:51.345Z,95652.13
2022-10-22T02:46:52.777Z,95653.66
2022-10-22T02:51:54.210Z,95636.28
2022-10-22T03:02:19.470Z,95645.22
2022-10-22T03:07:20.896Z,95643.91
2022-10-22T03:12:22.527Z,95669.69
2022-10-22T03:17:24.324Z,95667.38
2022-10-22T03:22:29.251Z,95681.75
2022-10-22T03:27:30.658Z,95684.47
2022-10-22T03:32:32.043Z,95685.00
2022-10-22T03:37:34.473Z,95689.44
2022-10-22T03:42:35.878Z,95680.91
2022-10-22T03:47:37.626Z,95677.44
2022-10-22T03:52:40.008Z,95670.50
2022-10-22T04:03:04.894Z,95701.16
2022-10-22T04:08:06.401Z,95698.19
2022-10-22T04:13:07.764Z,95695.22
2022-10-22T04:18:09.152Z,95689.56
2022-10-22T04:23:10.669Z,95689.91
2022-10-22T04:28:12.059Z,95695.66
2022-10-22T04:33:13.436Z,95687.19
2022-10-22T04:43:39.288Z,95688.50
2022-10-22T04:48:42.120Z,95690.16
2022-10-22T04:53:44.025Z,95694.19
2022-10-22T04:58:45.487Z,95690.41
2022-10-22T05:03:48.698Z,95681.69
2022-10-22T05:08:55.683Z,95686.31
2022-10-22T05:13:58.682Z,95685.19
2022-10-22T05:19:01.892Z,95692.28
2022-10-22T05:24:03.434Z,95693.63
2022-10-22T05:29:04.856Z,95704.09
2022-10-22T05:34:06.296Z,95716.66
2022-10-22T05:39:07.803Z,95716.81
2022-10-22T05:44:11.919Z,95715.69
2022-10-22T05:49:15.317Z,95723.78
2022-10-22T05:54:19.110Z,95723.16
2022-10-22T05:59:20.485Z,95730.72
2022-10-22T06:04:21.906Z,95733.56
2022-10-22T06:09:30.462Z,95740.97
2022-10-22T06:14:31.930Z,95743.00
2022-10-22T06:19:33.353Z,95750.34
2022-10-22T06:24:34.761Z,95753.19
2022-10-22T06:29:36.158Z,95756.00
2022-10-22T06:34:37.584Z,95766.00
2022-10-22T06:39:39.158Z,95773.94
2022-10-22T06:44:40.571Z,95765.78
2022-10-22T06:49:41.964Z,95771.41
2022-10-22T06:54:43.345Z,95772.22
2022-10-22T06:59:46.383Z,95781.44
2022-10-22T07:04:48.207Z,95795.38
2022-10-22T07:09:51.359Z,95799.38
2022-10-22T07:14:52.969Z,95811.34
2022-10-22T07:19:54.352Z,95820.53
2022-10-22T07:24:55.736Z,95827.69
2022-10-22T07:29:57.186Z,95840.84
2022-10-22T07:34:58.588Z,95852.22
2022-10-22T07:40:02.996Z,95842.97
2022-10-22T07:45:06.091Z,95840.91
2022-10-22T07:50:07.817Z,95852.94
2022-10-22T07:55:09.534Z,95858.13
2022-10-22T08:00:11.464Z,95855.22
2022-10-22T08:05:15.756Z,95869.69
2022-10-22T08:10:17.358Z,95871.44
2022-10-22T08:15:18.872Z,95873.84
2022-10-22T08:20:20.363Z,95874.22
2022-10-22T08:25:21.801Z,95877.41
2022-10-22T08:30:23.224Z,95876.16
2022-10-22T08:35:24.787Z,95868.69
2022-10-22T08:40:37.509Z,95857.31
2022-10-22T08:45:49.659Z,95863.13
2022-10-22T08:50:54.607Z,95870.56
2022-10-22T08:55:57.096Z,95866.44
2022-10-22T09:01:19.167Z,95871.78
2022-10-22T09:06:24.529Z,95873.91
2022-10-22T09:11:35.510Z,95884.13
2022-10-22T09:16:53.151Z,95875.69
2022-10-22T09:22:19.574Z,95878.88
2022-10-22T09:27:27.935Z,95884.31
2022-10-22T09:32:29.339Z,95876.56
2022-10-22T09:37:30.788Z,95875.59
2022-10-22T09:42:32.199Z,95878.94
2022-10-22T09:48:00.436Z,95879.09
2022-10-22T09:53:31.698Z,95884.28
2022-10-22T09:58:43.432Z,95884.97
2022-10-22T10:03:44.870Z,95879.63
2022-10-22T10:08:46.567Z,95892.09
2022-10-22T10:14:15.573Z,95892.22
2022-10-22T10:19:34.101Z,95893.88
2022-10-22T10:24:53.750Z,95893.53
2022-10-22T10:30:16.721Z,95890.47
2022-10-22T10:35:41.342Z,95897.78
2022-10-22T10:40:49.940Z,95891.06
2022-10-22T10:46:14.525Z,95891.25
2022-10-22T10:51:27.630Z,95900.31
2022-10-22T10:56:44.579Z,95902.38
2022-10-22T11:01:54.618Z,95903.47
2022-10-22T11:07:10.762Z,95904.56
2022-10-22T11:12:25.931Z,95898.63
2022-10-22T11:17:39.268Z,95895.66
2022-10-22T11:22:50.474Z,95884.84
2022-10-22T11:28:32.209Z,95893.97
2022-10-22T11:33:45.988Z,95878.53
2022-10-22T11:38:47.626Z,95878.81
2022-10-22T11:43:54.907Z,95886.13
2022-10-22T11:49:14.680Z,95890.06
2022-10-22T11:54:35.972Z,95878.50
2022-10-22T11:59:48.225Z,95876.88
2022-10-22T12:04:49.913Z,95879.63
2022-10-22T12:14:57.839Z,95877.41
2022-10-22T12:20:07.456Z,95866.78
2022-10-22T12:25:22.386Z,95856.66
2022-10-22T12:30:24.997Z,95852.41
2022-10-22T12:35:29.076Z,95846.31
2022-10-22T12:40:34.532Z,95858.94
2022-10-22T12:45:37.689Z,95841.50
2022-10-22T12:50:45.158Z,95849.19
2022-10-22T12:55:49.789Z,95854.91
2022-10-22T13:00:55.839Z,95858.25
2022-10-22T13:06:09.560Z,95853.06
2022-10-22T13:11:11.947Z,95858.94
2022-10-22T13:16:22.351Z,95855.06
2022-10-22T13:21:33.640Z,95857.81
2022-10-22T13:26:37.149Z,95853.25
2022-10-22T13:31:46.885Z,95838.69
2022-10-22T13:36:49.026Z,95843.59
2022-10-22T13:41:51.473Z,95845.97
2022-10-22T13:46:52.929Z,95833.78
2022-10-22T13:51:54.327Z,95833.22
2022-10-22T13:56:55.714Z,95838.97
2022-10-22T14:01:57.142Z,95840.13
2022-10-22T14:07:01.272Z,95824.81
2022-10-22T14:12:13.067Z,95825.38
2022-10-22T14:17:16.423Z,95821.38
2022-10-22T14:22:19.056Z,95822.59
2022-10-22T14:27:20.474Z,95825.69
2022-10-22T14:32:21.907Z,95829.16
2022-10-22T14:37:23.301Z,95829.47
2022-10-22T14:42:25.900Z,95827.88
2022-10-22T14:47:27.306Z,95833.88
2022-10-22T14:52:28.713Z,95826.06
2022-10-22T14:57:30.122Z,95826.63
2022-10-22T15:02:31.772Z,95828.88
2022-10-22T15:07:33.262Z,95822.28
2022-10-22T15:12:34.851Z,95820.88
2022-10-22T15:17:36.272Z,95828.16
2022-10-22T15:22:37.687Z,95829.66
2022-10-22T15:27:39.465Z,95822.25
2022-10-22T15:32:41.145Z,95821.84
2022-10-22T15:37:42.802Z,95826.88
2022-10-22T15:42:44.253Z,95822.31
2022-10-22T15:47:47.620Z,95834.81
2022-10-22T15:52:49.532Z,95841.03
2022-10-22T15:57:54.269Z,95851.78
2022-10-22T16:02:55.767Z,95857.28
2022-10-22T16:07:57.165Z,95851.09
2022-10-22T16:12:58.561Z,95854.13
2022-10-22T16:17:59.945Z,95858.25
2022-10-22T16:23:01.375Z,95855.66
2022-10-22T16:28:02.820Z,95845.72
2022-10-22T16:33:06.526Z,95852.31
2022-10-22T16:38:09.645Z,95854.84
2022-10-22T16:43:11.079Z,95858.25
2022-10-22T16:48:12.490Z,95861.25
2022-10-22T16:53:13.895Z,95872.94
2022-10-22T16:58:15.309Z,95883.19
2022-10-22T17:03:16.794Z,95892.63
2022-10-22T17:08:18.313Z,95902.09
2022-10-22T17:13:19.709Z,95894.63
2022-10-22T17:18:21.090Z,95898.66
2022-10-22T17:23:22.514Z,95906.22
2022-10-22T17:28:23.955Z,95903.63
2022-10-22T17:33:25.347Z,95897.34
2022-10-22T17:38:27.853Z,95913.66
2022-10-22T17:43:29.289Z,95911.19
2022-10-22T17:48:30.691Z,95908.25
2022-10-22T17:53:32.127Z,95907.88
2022-10-22T17:58:33.561Z,95906.56
2022-10-22T18:03:35.154Z,95913.91
2022-10-22T18:08:36.715Z,95911.59
2022-10-22T18:13:38.612Z,95911.44
2022-10-22T18:18:40.048Z,95912.91
2022-10-22T18:23:41.544Z,95912.06
2022-10-22T18:28:42.961Z,95909.75
2022-10-22T18:33:44.584Z,95903.09
2022-10-22T18:38:54.300Z,95907.38
2022-10-22T18:43:58.402Z,95905.59
2022-10-22T18:49:00.011Z,95898.69
2022-10-22T18:54:11.279Z,95906.97
2022-10-22T18:59:25.205Z,95904.59
2022-10-22T19:04:28.162Z,95899.25
2022-10-22T19:09:29.814Z,95906.22
2022-10-22T19:14:31.816Z,95906.78
2022-10-22T19:19:33.242Z,95911.41
2022-10-22T19:24:34.643Z,95917.41
2022-10-22T19:29:36.350Z,95920.19
2022-10-22T19:34:37.842Z,95915.34
2022-10-22T19:39:39.249Z,95916.09
2022-10-22T19:44:40.768Z,95902.59
2022-10-22T19:49:42.168Z,95904.38
2022-10-22T19:54:43.608Z,95908.38
2022-10-22T19:59:45.632Z,95909.34
2022-10-22T20:04:49.874Z,95904.19
2022-10-22T20:09:51.521Z,95906.63
2022-10-22T20:14:52.944Z,95904.16
2022-10-22T20:19:54.356Z,95901.25
2022-10-22T20:24:55.755Z,95905.44
2022-10-22T20:29:57.181Z,95906.22
2022-10-22T20:34:58.607Z,95913.94
2022-10-22T20:40:00.250Z,95902.44
2022-10-22T20:45:01.664Z,95903.19
2022-10-22T20:50:03.635Z,95910.47
2022-10-22T20:55:05.580Z,95900.91
2022-10-22T21:00:07.968Z,95899.16
2022-10-22T21:05:09.423Z,95908.63
2022-10-22T21:10:10.885Z,95899.31
2022-10-22T21:15:12.837Z,95895.59
2022-10-22T21:20:14.586Z,95903.72
2022-10-22T21:25:16.057Z,95898.16
2022-10-22T21:30:17.491Z,95896.69
2022-10-22T21:35:18.881Z,95890.28
2022-10-22T21:40:20.258Z,95900.94
2022-10-22T21:45:22.567Z,95891.16
2022-10-22T21:50:24.064Z,95893.69
2022-10-22T21:55:25.569Z,95883.19
2022-10-22T22:00:27.096Z,95876.97
2022-10-22T22:05:28.899Z,95876.19
2022-10-22T22:10:30.305Z,95878.47
2022-10-22T22:15:31.754Z,95881.97
2022-10-22T22:20:33.139Z,95892.19
2022-10-22T22:25:34.560Z,95883.84
2022-10-22T22:30:35.980Z,95877.34
2022-10-22T22:40:44.043Z,95858.53
2022-10-22T22:45:45.448Z,95858.25
2022-10-22T22:50:46.892Z,95850.34
2022-10-22T22:55:48.505Z,95849.72
2022-10-22T23:00:49.917Z,95830.75
2022-10-22T23:05:51.342Z,95832.72
2022-10-22T23:10:52.745Z,95838.88
2022-10-22T23:15:54.139Z,95838.97
2022-10-22T23:20:55.539Z,95844.25
2022-10-22T23:31:04.293Z,95841.06
2022-10-22T23:36:05.945Z,95825.06
2022-10-22T23:41:08.086Z,95824.53
2022-10-22T23:46:11.591Z,95825.63
2022-10-22T23:51:15.062Z,95827.16
2022-10-22T23:56:17.984Z,95819.81
